sensor_id;sensor_type;location;lat;lon;timestamp;P1;durP1;ratioP1;P2;durP2;ratioP2
51122;SDS011;37162;41.724;13.346;2022-12-17T00:01:31;4.60;;;3.10;;
51122;SDS011;37162;41.724;13.346;2022-12-17T00:04:15;3.90;;;3.40;;
51122;SDS011;37162;41.724;13.346;2022-12-17T00:06:59;4.25;;;3.45;;
51122;SDS011;37162;41.724;13.346;2022-12-17T00:09:43;4.55;;;3.25;;
51122;SDS011;37162;41.724;13.346;2022-12-17T00:12:27;4.40;;;3.10;;
51122;SDS011;37162;41.724;13.346;2022-12-17T00:15:11;5.00;;;3.00;;
51122;SDS011;37162;41.724;13.346;2022-12-17T00:18:02;3.65;;;3.25;;
51122;SDS011;37162;41.724;13.346;2022-12-17T00:20:51;4.50;;;3.30;;
51122;SDS011;37162;41.724;13.346;2022-12-17T00:23:39;4.07;;;3.30;;
51122;SDS011;37162;41.724;13.346;2022-12-17T00:26:23;3.40;;;2.80;;
51122;SDS011;37162;41.724;13.346;2022-12-17T00:29:07;2.83;;;2.55;;
51122;SDS011;37162;41.724;13.346;2022-12-17T00:31:50;3.65;;;2.78;;
51122;SDS011;37162;41.724;13.346;2022-12-17T00:34:34;3.83;;;3.20;;
51122;SDS011;37162;41.724;13.346;2022-12-17T00:37:18;3.53;;;2.83;;
51122;SDS011;37162;41.724;13.346;2022-12-17T00:40:02;3.10;;;2.60;;
51122;SDS011;37162;41.724;13.346;2022-12-17T00:42:46;3.53;;;2.72;;
51122;SDS011;37162;41.724;13.346;2022-12-17T00:45:30;3.72;;;3.33;;
51122;SDS011;37162;41.724;13.346;2022-12-17T00:48:31;3.33;;;2.85;;
51122;SDS011;37162;41.724;13.346;2022-12-17T00:51:15;4.95;;;3.10;;
51122;SDS011;37162;41.724;13.346;2022-12-17T00:53:59;3.13;;;2.75;;
51122;SDS011;37162;41.724;13.346;2022-12-17T00:56:43;3.65;;;2.92;;
51122;SDS011;37162;41.724;13.346;2022-12-17T00:59:27;3.45;;;3.05;;
51122;SDS011;37162;41.724;13.346;2022-12-17T01:02:11;3.50;;;2.40;;
51122;SDS011;37162;41.724;13.346;2022-12-17T01:04:54;3.83;;;2.45;;
51122;SDS011;37162;41.724;13.346;2022-12-17T01:07:40;3.78;;;3.10;;
51122;SDS011;37162;41.724;13.346;2022-12-17T01:10:24;2.53;;;2.17;;
51122;SDS011;37162;41.724;13.346;2022-12-17T01:13:11;4.05;;;2.47;;
51122;SDS011;37162;41.724;13.346;2022-12-17T01:16:00;3.08;;;2.50;;
51122;SDS011;37162;41.724;13.346;2022-12-17T01:18:45;3.53;;;2.33;;
51122;SDS011;37162;41.724;13.346;2022-12-17T01:21:30;4.55;;;2.97;;
51122;SDS011;37162;41.724;13.346;2022-12-17T01:24:14;2.53;;;2.22;;
51122;SDS011;37162;41.724;13.346;2022-12-17T01:26:57;3.17;;;2.42;;
51122;SDS011;37162;41.724;13.346;2022-12-17T01:29:41;3.80;;;2.30;;
51122;SDS011;37162;41.724;13.346;2022-12-17T01:32:25;3.13;;;2.35;;
51122;SDS011;37162;41.724;13.346;2022-12-17T01:35:09;3.42;;;2.70;;
51122;SDS011;37162;41.724;13.346;2022-12-17T01:37:53;3.40;;;2.25;;
51122;SDS011;37162;41.724;13.346;2022-12-17T01:40:37;3.70;;;2.55;;
51122;SDS011;37162;41.724;13.346;2022-12-17T01:43:35;3.00;;;2.20;;
51122;SDS011;37162;41.724;13.346;2022-12-17T01:46:20;2.28;;;1.80;;
51122;SDS011;37162;41.724;13.346;2022-12-17T01:49:05;2.80;;;1.90;;
51122;SDS011;37162;41.724;13.346;2022-12-17T01:51:51;3.17;;;2.63;;
51122;SDS011;37162;41.724;13.346;2022-12-17T01:54:36;2.78;;;2.25;;
51122;SDS011;37162;41.724;13.346;2022-12-17T01:57:22;2.40;;;2.20;;
51122;SDS011;37162;41.724;13.346;2022-12-17T02:00:08;3.25;;;2.33;;
51122;SDS011;37162;41.724;13.346;2022-12-17T02:02:56;2.80;;;2.50;;
51122;SDS011;37162;41.724;13.346;2022-12-17T02:05:47;3.25;;;2.40;;
51122;SDS011;37162;41.724;13.346;2022-12-17T02:14:44;2.80;;;2.28;;
51122;SDS011;37162;41.724;13.346;2022-12-17T02:17:39;2.58;;;1.98;;
51122;SDS011;37162;41.724;13.346;2022-12-17T02:23:24;3.10;;;2.10;;
51122;SDS011;37162;41.724;13.346;2022-12-17T02:26:30;2.65;;;2.17;;
51122;SDS011;37162;41.724;13.346;2022-12-17T02:29:19;2.10;;;1.90;;
51122;SDS011;37162;41.724;13.346;2022-12-17T02:32:06;2.30;;;2.10;;
51122;SDS011;37162;41.724;13.346;2022-12-17T02:34:52;3.30;;;2.35;;
51122;SDS011;37162;41.724;13.346;2022-12-17T02:37:37;2.42;;;2.05;;
51122;SDS011;37162;41.724;13.346;2022-12-17T02:40:21;2.97;;;2.17;;
51122;SDS011;37162;41.724;13.346;2022-12-17T02:43:07;2.35;;;2.08;;
51122;SDS011;37162;41.724;13.346;2022-12-17T02:45:53;2.20;;;2.00;;
51122;SDS011;37162;41.724;13.346;2022-12-17T02:48:37;2.65;;;2.22;;
51122;SDS011;37162;41.724;13.346;2022-12-17T02:51:21;2.85;;;2.40;;
51122;SDS011;37162;41.724;13.346;2022-12-17T02:54:07;2.97;;;2.35;;
51122;SDS011;37162;41.724;13.346;2022-12-17T02:56:54;2.45;;;1.92;;
51122;SDS011;37162;41.724;13.346;2022-12-17T02:59:38;2.72;;;2.20;;
51122;SDS011;37162;41.724;13.346;2022-12-17T03:02:24;2.65;;;2.22;;
51122;SDS011;37162;41.724;13.346;2022-12-17T03:05:08;2.78;;;2.15;;
51122;SDS011;37162;41.724;13.346;2022-12-17T03:07:52;2.67;;;2.28;;
51122;SDS011;37162;41.724;13.346;2022-12-17T03:10:36;2.45;;;2.20;;
51122;SDS011;37162;41.724;13.346;2022-12-17T03:13:21;2.97;;;2.33;;
51122;SDS011;37162;41.724;13.346;2022-12-17T03:16:14;3.28;;;2.55;;
51122;SDS011;37162;41.724;13.346;2022-12-17T03:18:59;3.30;;;2.33;;
51122;SDS011;37162;41.724;13.346;2022-12-17T03:21:43;2.60;;;2.30;;
51122;SDS011;37162;41.724;13.346;2022-12-17T03:24:27;4.32;;;2.60;;
51122;SDS011;37162;41.724;13.346;2022-12-17T03:27:11;2.75;;;2.47;;
51122;SDS011;37162;41.724;13.346;2022-12-17T03:30:10;2.55;;;2.35;;
51122;SDS011;37162;41.724;13.346;2022-12-17T03:32:54;4.78;;;2.90;;
51122;SDS011;37162;41.724;13.346;2022-12-17T03:35:38;2.92;;;2.40;;
51122;SDS011;37162;41.724;13.346;2022-12-17T03:38:22;2.78;;;2.47;;
51122;SDS011;37162;41.724;13.346;2022-12-17T03:41:06;3.50;;;2.47;;
51122;SDS011;37162;41.724;13.346;2022-12-17T03:43:50;2.92;;;2.63;;
51122;SDS011;37162;41.724;13.346;2022-12-17T03:46:34;2.60;;;2.15;;
51122;SDS011;37162;41.724;13.346;2022-12-17T03:49:25;2.28;;;2.08;;
51122;SDS011;37162;41.724;13.346;2022-12-17T03:52:17;2.58;;;2.28;;
51122;SDS011;37162;41.724;13.346;2022-12-17T03:55:01;2.55;;;2.28;;
51122;SDS011;37162;41.724;13.346;2022-12-17T03:57:45;2.90;;;2.13;;
51122;SDS011;37162;41.724;13.346;2022-12-17T04:00:29;2.47;;;2.28;;
51122;SDS011;37162;41.724;13.346;2022-12-17T04:03:13;2.75;;;2.22;;
51122;SDS011;37162;41.724;13.346;2022-12-17T04:05:57;3.13;;;2.20;;
51122;SDS011;37162;41.724;13.346;2022-12-17T04:08:41;3.25;;;2.58;;
51122;SDS011;37162;41.724;13.346;2022-12-17T04:11:25;2.65;;;2.30;;
51122;SDS011;37162;41.724;13.346;2022-12-17T04:14:08;2.47;;;2.13;;
51122;SDS011;37162;41.724;13.346;2022-12-17T04:16:52;3.00;;;2.67;;
51122;SDS011;37162;41.724;13.346;2022-12-17T04:19:36;2.72;;;2.20;;
51122;SDS011;37162;41.724;13.346;2022-12-17T04:22:20;2.83;;;2.03;;
51122;SDS011;37162;41.724;13.346;2022-12-17T04:25:04;2.22;;;2.03;;
51122;SDS011;37162;41.724;13.346;2022-12-17T04:27:48;2.88;;;2.20;;
51122;SDS011;37162;41.724;13.346;2022-12-17T04:30:32;3.20;;;2.28;;
51122;SDS011;37162;41.724;13.346;2022-12-17T04:33:16;2.33;;;2.13;;
51122;SDS011;37162;41.724;13.346;2022-12-17T04:36:00;2.95;;;2.60;;
51122;SDS011;37162;41.724;13.346;2022-12-17T04:38:44;2.60;;;2.20;;
51122;SDS011;37162;41.724;13.346;2022-12-17T04:41:28;2.75;;;2.15;;
51122;SDS011;37162;41.724;13.346;2022-12-17T04:44:12;2.88;;;2.08;;
51122;SDS011;37162;41.724;13.346;2022-12-17T04:46:56;2.45;;;1.90;;
51122;SDS011;37162;41.724;13.346;2022-12-17T04:49:40;3.15;;;2.38;;
51122;SDS011;37162;41.724;13.346;2022-12-17T04:52:24;3.17;;;2.22;;
51122;SDS011;37162;41.724;13.346;2022-12-17T04:55:07;2.35;;;1.98;;
51122;SDS011;37162;41.724;13.346;2022-12-17T04:57:51;3.08;;;1.90;;
51122;SDS011;37162;41.724;13.346;2022-12-17T05:00:35;2.72;;;1.80;;
51122;SDS011;37162;41.724;13.346;2022-12-17T05:03:19;2.45;;;1.88;;
51122;SDS011;37162;41.724;13.346;2022-12-17T05:06:03;2.10;;;1.70;;
51122;SDS011;37162;41.724;13.346;2022-12-17T05:08:47;1.63;;;1.50;;
51122;SDS011;37162;41.724;13.346;2022-12-17T05:11:31;2.92;;;1.67;;
51122;SDS011;37162;41.724;13.346;2022-12-17T05:14:15;2.53;;;1.75;;
51122;SDS011;37162;41.724;13.346;2022-12-17T05:16:59;2.13;;;1.70;;
51122;SDS011;37162;41.724;13.346;2022-12-17T05:19:43;1.88;;;1.52;;
51122;SDS011;37162;41.724;13.346;2022-12-17T05:22:27;1.42;;;1.33;;
51122;SDS011;37162;41.724;13.346;2022-12-17T05:25:11;1.88;;;1.30;;
51122;SDS011;37162;41.724;13.346;2022-12-17T05:27:55;2.97;;;1.60;;
51122;SDS011;37162;41.724;13.346;2022-12-17T05:30:39;2.58;;;1.65;;
51122;SDS011;37162;41.724;13.346;2022-12-17T05:33:24;1.48;;;1.38;;
51122;SDS011;37162;41.724;13.346;2022-12-17T05:36:07;2.03;;;1.23;;
51122;SDS011;37162;41.724;13.346;2022-12-17T05:38:51;1.55;;;1.30;;
51122;SDS011;37162;41.724;13.346;2022-12-17T05:41:35;2.70;;;1.42;;
51122;SDS011;37162;41.724;13.346;2022-12-17T05:44:19;1.30;;;1.20;;
51122;SDS011;37162;41.724;13.346;2022-12-17T05:47:05;2.22;;;1.42;;
51122;SDS011;37162;41.724;13.346;2022-12-17T05:49:49;1.73;;;1.20;;
51122;SDS011;37162;41.724;13.346;2022-12-17T05:52:33;1.63;;;1.40;;
51122;SDS011;37162;41.724;13.346;2022-12-17T05:55:17;1.67;;;1.20;;
51122;SDS011;37162;41.724;13.346;2022-12-17T05:58:05;1.75;;;1.38;;
51122;SDS011;37162;41.724;13.346;2022-12-17T06:00:55;2.97;;;1.60;;
51122;SDS011;37162;41.724;13.346;2022-12-17T06:03:43;1.83;;;1.55;;
51122;SDS011;37162;41.724;13.346;2022-12-17T06:06:27;5.75;;;1.50;;
51122;SDS011;37162;41.724;13.346;2022-12-17T06:09:11;2.13;;;1.52;;
51122;SDS011;37162;41.724;13.346;2022-12-17T06:11:55;1.60;;;1.20;;
51122;SDS011;37162;41.724;13.346;2022-12-17T06:14:39;1.65;;;1.40;;
51122;SDS011;37162;41.724;13.346;2022-12-17T06:17:22;1.38;;;1.27;;
51122;SDS011;37162;41.724;13.346;2022-12-17T06:20:07;1.50;;;1.40;;
51122;SDS011;37162;41.724;13.346;2022-12-17T06:22:58;2.17;;;1.40;;
51122;SDS011;37162;41.724;13.346;2022-12-17T06:25:43;1.40;;;1.10;;
51122;SDS011;37162;41.724;13.346;2022-12-17T06:28:27;2.20;;;1.45;;
51122;SDS011;37162;41.724;13.346;2022-12-17T06:31:11;1.50;;;1.40;;
51122;SDS011;37162;41.724;13.346;2022-12-17T06:33:55;2.40;;;1.70;;
51122;SDS011;37162;41.724;13.346;2022-12-17T06:36:39;1.42;;;1.30;;
51122;SDS011;37162;41.724;13.346;2022-12-17T06:39:23;1.67;;;1.17;;
51122;SDS011;37162;41.724;13.346;2022-12-17T06:42:07;1.83;;;1.15;;
51122;SDS011;37162;41.724;13.346;2022-12-17T06:44:51;2.08;;;1.38;;
51122;SDS011;37162;41.724;13.346;2022-12-17T06:47:34;2.45;;;1.40;;
51122;SDS011;37162;41.724;13.346;2022-12-17T06:50:18;2.38;;;1.48;;
51122;SDS011;37162;41.724;13.346;2022-12-17T06:53:04;2.67;;;1.55;;
51122;SDS011;37162;41.724;13.346;2022-12-17T06:55:49;6.93;;;1.60;;
51122;SDS011;37162;41.724;13.346;2022-12-17T06:58:34;3.22;;;1.63;;
51122;SDS011;37162;41.724;13.346;2022-12-17T07:01:21;3.88;;;2.58;;
51122;SDS011;37162;41.724;13.346;2022-12-17T07:04:05;4.35;;;1.73;;
51122;SDS011;37162;41.724;13.346;2022-12-17T07:06:49;4.00;;;2.10;;
51122;SDS011;37162;41.724;13.346;2022-12-17T07:09:33;5.25;;;2.15;;
51122;SDS011;37162;41.724;13.346;2022-12-17T07:12:17;5.30;;;2.40;;
51122;SDS011;37162;41.724;13.346;2022-12-17T07:15:01;3.53;;;2.10;;
51122;SDS011;37162;41.724;13.346;2022-12-17T07:17:55;6.70;;;1.98;;
51122;SDS011;37162;41.724;13.346;2022-12-17T07:20:38;3.90;;;2.15;;
51122;SDS011;37162;41.724;13.346;2022-12-17T07:23:42;5.38;;;2.58;;
51122;SDS011;37162;41.724;13.346;2022-12-17T07:26:26;11.05;;;1.95;;
51122;SDS011;37162;41.724;13.346;2022-12-17T07:29:10;4.80;;;2.17;;
51122;SDS011;37162;41.724;13.346;2022-12-17T07:31:54;4.95;;;2.60;;
51122;SDS011;37162;41.724;13.346;2022-12-17T07:34:38;5.75;;;2.40;;
51122;SDS011;37162;41.724;13.346;2022-12-17T07:37:22;6.57;;;3.00;;
51122;SDS011;37162;41.724;13.346;2022-12-17T07:40:06;3.10;;;2.20;;
51122;SDS011;37162;41.724;13.346;2022-12-17T07:42:51;7.90;;;3.13;;
51122;SDS011;37162;41.724;13.346;2022-12-17T07:45:34;4.25;;;2.40;;
51122;SDS011;37162;41.724;13.346;2022-12-17T07:48:18;3.88;;;2.42;;
51122;SDS011;37162;41.724;13.346;2022-12-17T07:51:02;3.72;;;2.80;;
51122;SDS011;37162;41.724;13.346;2022-12-17T07:53:46;4.30;;;2.70;;
51122;SDS011;37162;41.724;13.346;2022-12-17T07:56:30;2.95;;;2.15;;
51122;SDS011;37162;41.724;13.346;2022-12-17T07:59:14;3.60;;;2.63;;
51122;SDS011;37162;41.724;13.346;2022-12-17T08:01:59;3.53;;;2.50;;
51122;SDS011;37162;41.724;13.346;2022-12-17T08:04:43;4.60;;;2.58;;
51122;SDS011;37162;41.724;13.346;2022-12-17T08:07:27;4.00;;;2.50;;
51122;SDS011;37162;41.724;13.346;2022-12-17T08:10:11;5.53;;;2.85;;
51122;SDS011;37162;41.724;13.346;2022-12-17T08:13:04;3.75;;;2.72;;
51122;SDS011;37162;41.724;13.346;2022-12-17T08:15:52;3.58;;;2.60;;
51122;SDS011;37162;41.724;13.346;2022-12-17T08:18:36;6.03;;;3.15;;
51122;SDS011;37162;41.724;13.346;2022-12-17T08:21:21;5.10;;;3.47;;
51122;SDS011;37162;41.724;13.346;2022-12-17T08:24:05;3.78;;;2.88;;
51122;SDS011;37162;41.724;13.346;2022-12-17T08:26:49;3.65;;;3.00;;
51122;SDS011;37162;41.724;13.346;2022-12-17T08:29:33;3.45;;;2.63;;
51122;SDS011;37162;41.724;13.346;2022-12-17T08:32:17;5.72;;;2.30;;
51122;SDS011;37162;41.724;13.346;2022-12-17T08:35:01;4.97;;;3.10;;
51122;SDS011;37162;41.724;13.346;2022-12-17T08:37:45;3.05;;;2.53;;
51122;SDS011;37162;41.724;13.346;2022-12-17T08:40:29;3.75;;;2.45;;
51122;SDS011;37162;41.724;13.346;2022-12-17T08:43:13;3.55;;;2.70;;
51122;SDS011;37162;41.724;13.346;2022-12-17T08:45:57;3.20;;;2.38;;
51122;SDS011;37162;41.724;13.346;2022-12-17T08:48:41;2.42;;;2.15;;
51122;SDS011;37162;41.724;13.346;2022-12-17T08:51:25;3.95;;;2.65;;
51122;SDS011;37162;41.724;13.346;2022-12-17T08:54:09;2.85;;;2.55;;
51122;SDS011;37162;41.724;13.346;2022-12-17T08:56:53;2.63;;;2.28;;
51122;SDS011;37162;41.724;13.346;2022-12-17T08:59:37;3.33;;;2.30;;
51122;SDS011;37162;41.724;13.346;2022-12-17T09:02:21;3.67;;;2.33;;
51122;SDS011;37162;41.724;13.346;2022-12-17T09:05:06;3.28;;;2.50;;
51122;SDS011;37162;41.724;13.346;2022-12-17T09:07:57;3.35;;;2.30;;
51122;SDS011;37162;41.724;13.346;2022-12-17T09:10:45;3.90;;;2.58;;
51122;SDS011;37162;41.724;13.346;2022-12-17T09:13:29;2.90;;;2.20;;
51122;SDS011;37162;41.724;13.346;2022-12-17T09:16:13;2.35;;;2.05;;
51122;SDS011;37162;41.724;13.346;2022-12-17T09:18:57;2.80;;;2.20;;
51122;SDS011;37162;41.724;13.346;2022-12-17T09:21:41;3.00;;;2.13;;
51122;SDS011;37162;41.724;13.346;2022-12-17T09:24:25;2.95;;;2.05;;
51122;SDS011;37162;41.724;13.346;2022-12-17T09:27:09;3.15;;;2.45;;
51122;SDS011;37162;41.724;13.346;2022-12-17T09:29:53;4.53;;;2.67;;
51122;SDS011;37162;41.724;13.346;2022-12-17T09:32:37;4.45;;;3.00;;
51122;SDS011;37162;41.724;13.346;2022-12-17T09:35:21;3.05;;;2.42;;
51122;SDS011;37162;41.724;13.346;2022-12-17T09:38:05;3.83;;;2.55;;
51122;SDS011;37162;41.724;13.346;2022-12-17T09:40:49;3.42;;;2.70;;
51122;SDS011;37162;41.724;13.346;2022-12-17T09:43:39;3.92;;;3.00;;
51122;SDS011;37162;41.724;13.346;2022-12-17T09:49:28;5.28;;;2.83;;
51122;SDS011;37162;41.724;13.346;2022-12-17T09:52:20;3.25;;;2.78;;
51122;SDS011;37162;41.724;13.346;2022-12-17T09:55:20;5.28;;;2.72;;
51122;SDS011;37162;41.724;13.346;2022-12-17T09:58:13;3.03;;;2.50;;
51122;SDS011;37162;41.724;13.346;2022-12-17T10:01:03;3.47;;;2.60;;
51122;SDS011;37162;41.724;13.346;2022-12-17T10:03:48;2.85;;;2.38;;
51122;SDS011;37162;41.724;13.346;2022-12-17T10:06:32;4.25;;;2.88;;
51122;SDS011;37162;41.724;13.346;2022-12-17T10:09:18;3.53;;;2.90;;
51122;SDS011;37162;41.724;13.346;2022-12-17T10:12:15;4.07;;;3.15;;
51122;SDS011;37162;41.724;13.346;2022-12-17T10:15:02;3.38;;;2.67;;
51122;SDS011;37162;41.724;13.346;2022-12-17T10:17:46;4.78;;;2.95;;
51122;SDS011;37162;41.724;13.346;2022-12-17T10:20:53;5.00;;;3.03;;
51122;SDS011;37162;41.724;13.346;2022-12-17T10:23:40;5.28;;;3.58;;
51122;SDS011;37162;41.724;13.346;2022-12-17T10:26:25;2.90;;;2.55;;
51122;SDS011;37162;41.724;13.346;2022-12-17T10:29:11;3.40;;;2.50;;
51122;SDS011;37162;41.724;13.346;2022-12-17T10:32:10;4.20;;;2.95;;
51122;SDS011;37162;41.724;13.346;2022-12-17T10:34:57;3.72;;;2.75;;
51122;SDS011;37162;41.724;13.346;2022-12-17T10:37:41;4.97;;;2.70;;
51122;SDS011;37162;41.724;13.346;2022-12-17T10:40:27;3.00;;;2.58;;
51122;SDS011;37162;41.724;13.346;2022-12-17T10:46:21;3.58;;;2.72;;
51122;SDS011;37162;41.724;13.346;2022-12-17T10:49:16;4.40;;;2.67;;
51122;SDS011;37162;41.724;13.346;2022-12-17T10:55:03;3.92;;;2.72;;
51122;SDS011;37162;41.724;13.346;2022-12-17T10:57:49;4.18;;;3.15;;
51122;SDS011;37162;41.724;13.346;2022-12-17T11:00:38;3.60;;;2.78;;
51122;SDS011;37162;41.724;13.346;2022-12-17T11:06:27;4.43;;;2.70;;
51122;SDS011;37162;41.724;13.346;2022-12-17T11:09:17;4.05;;;2.97;;
51122;SDS011;37162;41.724;13.346;2022-12-17T11:12:07;3.78;;;3.05;;
51122;SDS011;37162;41.724;13.346;2022-12-17T11:14:53;4.13;;;3.00;;
51122;SDS011;37162;41.724;13.346;2022-12-17T11:17:41;4.63;;;3.42;;
51122;SDS011;37162;41.724;13.346;2022-12-17T11:20:43;5.10;;;2.88;;
51122;SDS011;37162;41.724;13.346;2022-12-17T11:23:33;3.72;;;3.10;;
51122;SDS011;37162;41.724;13.346;2022-12-17T11:26:20;3.72;;;3.03;;
51122;SDS011;37162;41.724;13.346;2022-12-17T11:29:10;3.85;;;3.10;;
51122;SDS011;37162;41.724;13.346;2022-12-17T11:35:19;4.15;;;3.35;;
51122;SDS011;37162;41.724;13.346;2022-12-17T11:38:28;4.57;;;3.33;;
51122;SDS011;37162;41.724;13.346;2022-12-17T11:41:14;7.78;;;3.83;;
51122;SDS011;37162;41.724;13.346;2022-12-17T11:44:26;5.28;;;3.47;;
51122;SDS011;37162;41.724;13.346;2022-12-17T12:05:09;5.47;;;3.90;;
51122;SDS011;37162;41.724;13.346;2022-12-17T12:11:01;6.53;;;4.50;;
51122;SDS011;37162;41.724;13.346;2022-12-17T12:20:03;6.38;;;4.65;;
51122;SDS011;37162;41.724;13.346;2022-12-17T12:26:16;6.03;;;4.03;;
51122;SDS011;37162;41.724;13.346;2022-12-17T12:32:35;5.35;;;4.18;;
51122;SDS011;37162;41.724;13.346;2022-12-17T12:35:23;7.57;;;4.15;;
51122;SDS011;37162;41.724;13.346;2022-12-17T12:38:20;7.10;;;4.78;;
51122;SDS011;37162;41.724;13.346;2022-12-17T12:41:13;6.45;;;5.22;;
51122;SDS011;37162;41.724;13.346;2022-12-17T12:44:00;5.22;;;4.28;;
51122;SDS011;37162;41.724;13.346;2022-12-17T12:46:56;6.32;;;4.35;;
51122;SDS011;37162;41.724;13.346;2022-12-17T12:50:00;5.97;;;4.30;;
51122;SDS011;37162;41.724;13.346;2022-12-17T12:52:55;6.88;;;4.35;;
51122;SDS011;37162;41.724;13.346;2022-12-17T12:55:41;5.95;;;4.70;;
51122;SDS011;37162;41.724;13.346;2022-12-17T13:01:09;5.72;;;4.22;;
51122;SDS011;37162;41.724;13.346;2022-12-17T13:03:54;5.95;;;4.25;;
51122;SDS011;37162;41.724;13.346;2022-12-17T13:06:44;7.40;;;4.35;;
51122;SDS011;37162;41.724;13.346;2022-12-17T13:11:53;5.57;;;4.33;;
51122;SDS011;37162;41.724;13.346;2022-12-17T13:14:21;6.82;;;4.63;;
51122;SDS011;37162;41.724;13.346;2022-12-17T13:24:44;7.65;;;5.32;;
51122;SDS011;37162;41.724;13.346;2022-12-17T13:35:32;7.53;;;5.88;;
51122;SDS011;37162;41.724;13.346;2022-12-17T13:41:09;7.82;;;6.00;;
51122;SDS011;37162;41.724;13.346;2022-12-17T13:46:15;9.73;;;6.50;;
51122;SDS011;37162;41.724;13.346;2022-12-17T13:48:43;9.40;;;6.45;;
51122;SDS011;37162;41.724;13.346;2022-12-17T13:51:19;9.65;;;6.80;;
51122;SDS011;37162;41.724;13.346;2022-12-17T13:53:56;9.63;;;6.40;;
51122;SDS011;37162;41.724;13.346;2022-12-17T13:56:24;10.50;;;6.57;;
51122;SDS011;37162;41.724;13.346;2022-12-17T13:58:53;8.05;;;6.20;;
51122;SDS011;37162;41.724;13.346;2022-12-17T14:01:20;7.40;;;6.10;;
51122;SDS011;37162;41.724;13.346;2022-12-17T14:03:53;9.73;;;7.28;;
51122;SDS011;37162;41.724;13.346;2022-12-17T14:06:21;9.57;;;6.82;;
51122;SDS011;37162;41.724;13.346;2022-12-17T14:08:56;9.82;;;7.45;;
51122;SDS011;37162;41.724;13.346;2022-12-17T14:11:23;10.57;;;6.93;;
51122;SDS011;37162;41.724;13.346;2022-12-17T14:14:09;9.75;;;6.68;;
51122;SDS011;37162;41.724;13.346;2022-12-17T14:16:45;12.30;;;7.25;;
51122;SDS011;37162;41.724;13.346;2022-12-17T14:19:11;9.65;;;6.95;;
51122;SDS011;37162;41.724;13.346;2022-12-17T14:21:36;9.25;;;6.72;;
51122;SDS011;37162;41.724;13.346;2022-12-17T14:24:05;10.02;;;6.93;;
51122;SDS011;37162;41.724;13.346;2022-12-17T14:26:31;11.77;;;6.60;;
51122;SDS011;37162;41.724;13.346;2022-12-17T14:28:56;10.57;;;7.22;;
51122;SDS011;37162;41.724;13.346;2022-12-17T14:31:23;7.75;;;6.22;;
51122;SDS011;37162;41.724;13.346;2022-12-17T14:34:03;10.50;;;7.20;;
51122;SDS011;37162;41.724;13.346;2022-12-17T14:36:31;10.23;;;6.93;;
51122;SDS011;37162;41.724;13.346;2022-12-17T14:39:00;8.98;;;6.60;;
51122;SDS011;37162;41.724;13.346;2022-12-17T14:41:28;8.95;;;6.80;;
51122;SDS011;37162;41.724;13.346;2022-12-17T14:44:20;10.48;;;7.50;;
51122;SDS011;37162;41.724;13.346;2022-12-17T14:46:49;10.63;;;7.07;;
51122;SDS011;37162;41.724;13.346;2022-12-17T14:49:19;10.75;;;7.20;;
51122;SDS011;37162;41.724;13.346;2022-12-17T14:51:46;9.02;;;6.57;;
51122;SDS011;37162;41.724;13.346;2022-12-17T14:56:39;10.63;;;6.70;;
51122;SDS011;37162;41.724;13.346;2022-12-17T15:04:42;7.80;;;6.50;;
51122;SDS011;37162;41.724;13.346;2022-12-17T15:07:09;8.63;;;6.50;;
51122;SDS011;37162;41.724;13.346;2022-12-17T15:09:38;8.40;;;6.30;;
51122;SDS011;37162;41.724;13.346;2022-12-17T15:12:05;9.80;;;7.20;;
51122;SDS011;37162;41.724;13.346;2022-12-17T15:14:31;8.38;;;6.53;;
51122;SDS011;37162;41.724;13.346;2022-12-17T15:16:56;9.60;;;6.50;;
51122;SDS011;37162;41.724;13.346;2022-12-17T15:19:23;11.27;;;6.95;;
51122;SDS011;37162;41.724;13.346;2022-12-17T15:21:49;9.85;;;6.35;;
51122;SDS011;37162;41.724;13.346;2022-12-17T15:24:16;9.82;;;6.35;;
51122;SDS011;37162;41.724;13.346;2022-12-17T15:26:44;8.52;;;6.03;;
51122;SDS011;37162;41.724;13.346;2022-12-17T15:29:10;8.60;;;6.10;;
51122;SDS011;37162;41.724;13.346;2022-12-17T15:31:35;8.88;;;6.55;;
51122;SDS011;37162;41.724;13.346;2022-12-17T15:34:01;11.60;;;7.15;;
51122;SDS011;37162;41.724;13.346;2022-12-17T15:36:26;8.90;;;6.75;;
51122;SDS011;37162;41.724;13.346;2022-12-17T15:38:52;9.52;;;7.40;;
51122;SDS011;37162;41.724;13.346;2022-12-17T15:41:17;8.65;;;6.63;;
51122;SDS011;37162;41.724;13.346;2022-12-17T15:44:01;10.55;;;7.57;;
51122;SDS011;37162;41.724;13.346;2022-12-17T15:46:27;10.43;;;7.07;;
51122;SDS011;37162;41.724;13.346;2022-12-17T15:48:54;9.35;;;6.85;;
51122;SDS011;37162;41.724;13.346;2022-12-17T15:51:20;10.52;;;7.30;;
51122;SDS011;37162;41.724;13.346;2022-12-17T15:53:48;9.05;;;7.00;;
51122;SDS011;37162;41.724;13.346;2022-12-17T15:56:18;9.60;;;6.88;;
51122;SDS011;37162;41.724;13.346;2022-12-17T15:58:46;10.45;;;6.68;;
51122;SDS011;37162;41.724;13.346;2022-12-17T16:01:11;10.20;;;6.32;;
51122;SDS011;37162;41.724;13.346;2022-12-17T16:03:37;8.52;;;6.97;;
51122;SDS011;37162;41.724;13.346;2022-12-17T16:06:02;10.15;;;7.28;;
51122;SDS011;37162;41.724;13.346;2022-12-17T16:08:27;8.50;;;6.30;;
51122;SDS011;37162;41.724;13.346;2022-12-17T16:10:53;9.27;;;6.50;;
51122;SDS011;37162;41.724;13.346;2022-12-17T16:13:18;9.93;;;6.80;;
51122;SDS011;37162;41.724;13.346;2022-12-17T16:15:44;9.68;;;6.05;;
51122;SDS011;37162;41.724;13.346;2022-12-17T16:18:09;11.25;;;6.78;;
51122;SDS011;37162;41.724;13.346;2022-12-17T16:20:35;9.35;;;6.70;;
51122;SDS011;37162;41.724;13.346;2022-12-17T16:23:00;9.90;;;5.93;;
51122;SDS011;37162;41.724;13.346;2022-12-17T16:25:26;11.10;;;6.82;;
51122;SDS011;37162;41.724;13.346;2022-12-17T16:27:51;9.32;;;6.03;;
51122;SDS011;37162;41.724;13.346;2022-12-17T16:30:16;8.30;;;6.05;;
51122;SDS011;37162;41.724;13.346;2022-12-17T16:32:42;8.05;;;6.50;;
51122;SDS011;37162;41.724;13.346;2022-12-17T16:35:08;11.48;;;6.10;;
51122;SDS011;37162;41.724;13.346;2022-12-17T16:37:34;8.43;;;6.10;;
51122;SDS011;37162;41.724;13.346;2022-12-17T16:39:59;9.00;;;6.05;;
51122;SDS011;37162;41.724;13.346;2022-12-17T16:42:25;9.13;;;6.28;;
51122;SDS011;37162;41.724;13.346;2022-12-17T16:44:50;9.13;;;6.68;;
51122;SDS011;37162;41.724;13.346;2022-12-17T16:47:16;9.07;;;5.85;;
51122;SDS011;37162;41.724;13.346;2022-12-17T16:49:41;6.85;;;5.32;;
51122;SDS011;37162;41.724;13.346;2022-12-17T16:52:06;9.95;;;6.75;;
51122;SDS011;37162;41.724;13.346;2022-12-17T16:54:32;9.02;;;6.28;;
51122;SDS011;37162;41.724;13.346;2022-12-17T16:56:57;9.30;;;6.55;;
51122;SDS011;37162;41.724;13.346;2022-12-17T16:59:24;8.65;;;6.70;;
51122;SDS011;37162;41.724;13.346;2022-12-17T17:01:49;9.05;;;6.60;;
51122;SDS011;37162;41.724;13.346;2022-12-17T17:04:17;8.77;;;6.55;;
51122;SDS011;37162;41.724;13.346;2022-12-17T17:06:46;12.55;;;7.78;;
51122;SDS011;37162;41.724;13.346;2022-12-17T17:09:13;12.05;;;8.70;;
51122;SDS011;37162;41.724;13.346;2022-12-17T17:11:39;11.40;;;8.10;;
51122;SDS011;37162;41.724;13.346;2022-12-17T17:14:06;11.40;;;7.72;;
51122;SDS011;37162;41.724;13.346;2022-12-17T17:16:32;12.25;;;7.80;;
51122;SDS011;37162;41.724;13.346;2022-12-17T17:18:58;10.52;;;7.70;;
51122;SDS011;37162;41.724;13.346;2022-12-17T17:23:53;13.63;;;8.02;;
51122;SDS011;37162;41.724;13.346;2022-12-17T17:26:20;10.88;;;7.80;;
51122;SDS011;37162;41.724;13.346;2022-12-17T17:28:46;12.57;;;8.05;;
51122;SDS011;37162;41.724;13.346;2022-12-17T17:31:13;13.23;;;8.43;;
51122;SDS011;37162;41.724;13.346;2022-12-17T17:33:40;11.02;;;8.07;;